Sagola, Michigan
Current Conditions -  °F | °C
As of 2:54 PM on Friday 19 Dec 2014 (Local Time) from KIMT Reporting Station
Overcast Overcast  
Wind Chill: 26°   Ceiling: 1700
Heat Index: 26°   Visibility: 10mi
Dew Point: 19°   Wind: 0mph
Humidity: 75%   Direction: NA
Pressure: 30.22"   Gusts: NA
Location:  46.09°N, 88.08°W
Report Text: KIMT 192054Z AUTO 00000KT 10SM OVC017 M03/M07 A3022 RMK AO2 SLP261 T10331072 58004
Loading
Personal Weather Stations






























Interactive Weather Map New forecast layout! Learn more

10-Day Weather Forecast

Advertisements
Track Severe Weather on mobile